Flight Track Log - Related Links

Times and Time Zones

All times are in EDT time to prevent confusion due to time zone crossing. See the N960DL flight status page for this flight to view local times or setup timezone preferences in your user account.

Time Position Orientation Groundspeed Altitude Reporting Facility
EDT Latitude Longitude Course Direction KTS MPH feet Rate Location/Type
Tue 11:17:10 AM 25.7983 -80.2675 20° North 165 190 1,100  Level Miami Center
Tue 11:18:29 AM 25.8022 -80.1847 87° East 231 266 4,000 2,489 Climbing Miami Center
Tue 11:19:00 AM 26.1063 -80.1469 24° Northeast  Level FlightAware Approximate
Tue 11:20:00 AM 26.2130 -80.0982 20° North  Level FlightAware Approximate
Tue 11:20:06 AM 25.9089 -80.1831 North 294 338 8,400  Level Miami Center
Tue 11:21:00 AM 26.3216 -80.0547 20° North  Level FlightAware Approximate
Tue 11:21:06 AM 25.9789 -80.2311 328° Northwest 294 338 10,800  Level Miami Center
Tue 11:22:00 AM 26.4253 -79.9999 20° North  Level FlightAware Approximate
Tue 11:22:06 AM 26.0506 -80.2933 322° Northwest 305 351 13,100  Level Miami Center
Tue 11:23:06 AM 26.1328 -80.3442 331° Northwest 326 375 15,400 2,350 Climbing Miami Center
Tue 11:24:06 AM 26.2214 -80.3956 333° Northwest 343 395 17,800 2,100 Climbing Miami Center
Tue 11:25:06 AM 26.3100 -80.4492 332° Northwest 355 409 19,600 1,800 Climbing Miami Center
Tue 11:26:06 AM 26.4067 -80.5031 333° Northwest 368 423 21,400 1,700 Climbing Miami Center
Tue 11:27:06 AM 26.5033 -80.5617 332° Northwest 378 435 23,000 1,650 Climbing Miami Center
Tue 11:28:06 AM 26.6103 -80.6325 329° Northwest 397 457 24,700 1,700 Climbing Miami Center
Tue 11:29:06 AM 26.7022 -80.7097 323° Northwest 414 476 26,400 1,350 Climbing Miami Center
Tue 11:30:06 AM 26.7939 -80.7942 321° Northwest 420 483 27,400 1,050 Climbing Miami Center
Tue 11:31:06 AM 26.8875 -80.8764 322° Northwest 425 489 28,500 800 Climbing Miami Center
Tue 11:32:06 AM 26.9878 -80.9522 326° Northwest 431 496 29,000 800 Climbing Miami Center
Tue 11:33:06 AM 27.1108 -80.9589 357° North 418 481 30,100 1,000 Climbing Miami Center
Tue 11:34:06 AM 27.2325 -80.9397 North 423 487 31,000 900 Climbing Miami Center
Tue 11:35:06 AM 27.3456 -80.9228 North 435 501 31,900 900 Climbing Miami Center
Tue 11:36:06 AM 27.4714 -80.9086 North 448 516 32,800 600 Climbing Miami Center
Tue 11:37:06 AM 27.6011 -80.8919 North 455 524 33,100 50 Climbing Miami Center
Tue 11:38:06 AM 27.7269 -80.8731 North 460 529 32,900 -50 Descending Miami Center
Tue 11:39:06 AM 27.8394 -80.8064 28° Northeast 453 521 33,000 50 Climbing Miami Center
Tue 11:40:05 AM 27.9381 -80.7114 40° Northeast 445 512 33,000  Level Miami Center
Tue 11:41:06 AM 28.0344 -80.6181 41° Northeast 452 520 33,000  Level Miami Center
Tue 11:42:06 AM 28.1328 -80.5225 41° Northeast 457 526 33,000  Level Miami Center
Tue 11:43:06 AM 28.2292 -80.4314 40° Northeast 455 524 33,000  Level Miami Center
Tue 11:44:06 AM 28.3358 -80.3286 40° Northeast 455 524 33,000  Level Miami Center
Tue 11:45:06 AM 28.4322 -80.2325 41° Northeast 455 524 33,000  Level Miami Center
Tue 11:46:06 AM 28.5283 -80.1386 41° Northeast 450 518 33,000  Level Miami Center
Tue 11:47:05 AM 28.6136 -80.0511 42° Northeast 450 518 33,000  Level Miami Center
Tue 11:48:06 AM 28.7075 -79.9544 42° Northeast 450 518 33,000 -50 Level Miami Center
Tue 11:49:06 AM 28.8014 -79.8600 41° Northeast 445 512 32,900  Descending Miami Center
Tue 11:50:06 AM 28.8478 -79.7308 68° East 439 505 33,000 50 Climbing Miami Center
Tue 11:51:06 AM 28.8756 -79.5942 77° East 425 489 33,000  Level Miami Center
Tue 11:52:06 AM 28.8992 -79.4525 79° East 435 501 33,000  Level Miami Center
Tue 11:53:05 AM 28.9556 -79.3281 63° Northeast 433 498 33,000  Level Miami Center
Tue 11:54:05 AM 29.0733 -79.2736 22° Northeast 407 468 33,000 -397 Level Miami Center
Tue 11:55:06 AM 29.1789 -79.1928 34° Northeast 431 496 32,200 -992 Descending Miami Center
Tue 11:56:06 AM 29.3025 -79.1572 14° North 442 509 31,000 -600 Descending Miami Center
Tue 11:57:06 AM 29.4322 -79.1339 North 447 514 31,000  Level Miami Center
Tue 11:58:06 AM 29.5558 -79.1031 12° North 447 514 31,000  Level Miami Center
Tue 12:00:26 PM 29.8572 -79.0300 12° North 459 528 31,000  Level Jacksonville Center
Tue 12:01:26 PM 29.9794 -78.9964 13° North 463 533 31,000  Level Jacksonville Center
Tue 12:02:26 PM 30.1017 -78.9672 12° North 444 511 31,000  Level Jacksonville Center
Tue 12:03:26 PM 30.2217 -78.9289 15° North 450 518 31,000  Level Jacksonville Center
Tue 12:04:26 PM 30.3422 -78.9117 North 450 518 31,000  Level Jacksonville Center
Tue 12:05:26 PM 30.4622 -78.8803 13° North 450 518 31,000  Level Jacksonville Center
Tue 12:06:26 PM 30.5886 -78.8508 11° North 450 518 31,000  Level Jacksonville Center
Tue 12:07:26 PM 30.7131 -78.8214 11° North 450 518 31,000  Level Jacksonville Center
Tue 12:08:26 PM 30.8494 -78.7842 13° North 457 526 31,000  Level Jacksonville Center
Tue 12:09:26 PM 30.9717 -78.7544 12° North 457 526 31,000  Level Jacksonville Center
Tue 12:10:26 PM 31.1003 -78.7247 11° North 450 518 31,000  Level Jacksonville Center
Tue 12:11:26 PM 31.2203 -78.6975 11° North 450 518 31,000  Level Jacksonville Center
Tue 12:12:26 PM 31.3464 -78.6625 13° North 450 518 31,000  Level Jacksonville Center
Tue 12:13:26 PM 31.4708 -78.6325 12° North 450 518 31,000  Level Jacksonville Center
Tue 12:14:26 PM 31.5950 -78.6000 13° North 450 518 31,000  Level Jacksonville Center
Tue 12:15:26 PM 31.7192 -78.5700 12° North 452 520 31,000  Level Jacksonville Center
Tue 12:16:26 PM 31.8414 -78.5397 12° North 452 520 31,000  Level Jacksonville Center
Tue 12:17:26 PM 31.9653 -78.5044 14° North 452 520 31,000  Level Jacksonville Center
Tue 12:18:26 PM 32.0894 -78.4717 13° North 447 514 31,000  Level Jacksonville Center
Tue 12:19:26 PM 32.2094 -78.4436 11° North 447 514 31,000  Level Jacksonville Center
Tue 12:20:26 PM 32.3375 -78.4081 13° North 447 514 31,000  Level Jacksonville Center
Tue 12:21:26 PM 32.4492 -78.3778 13° North 447 514 31,000  Level Jacksonville Center
Tue 12:22:26 PM 32.5733 -78.3444 13° North 447 514 31,000  Level Jacksonville Center
Tue 12:23:26 PM 32.6972 -78.3111 13° North 447 514 31,000  Level Jacksonville Center
Tue 12:24:26 PM 32.8214 -78.2828 11° North 447 514 31,000  Level Jacksonville Center
Tue 12:25:26 PM 32.9433 -78.2492 13° North 447 514 31,000  Level Jacksonville Center
Tue 12:26:26 PM 33.0653 -78.2181 12° North 447 514 31,000  Level Jacksonville Center
Tue 12:27:26 PM 33.1894 -78.1867 12° North 447 514 31,000  Level Jacksonville Center
Tue 12:28:26 PM 33.3133 -78.1553 12° North 447 514 31,000  Level Jacksonville Center
Tue 12:29:26 PM 33.4375 -78.1239 12° North 447 514 31,000  Level Jacksonville Center
Tue 12:30:54 PM 33.6161 -78.0778 12° North 453 521 31,000  Level Washington Center
Tue 12:31:52 PM 33.7378 -78.0464 12° North 453 521 31,000  Level Washington Center
Tue 12:32:52 PM 33.8594 -78.0150 12° North 447 514 31,000  Level Washington Center
Tue 12:33:53 PM 34.0000 -77.9742 14° North 447 514 31,000  Level Washington Center
Tue 12:34:54 PM 34.1236 -77.9425 12° North 454 522 31,000  Level Washington Center
Tue 12:35:53 PM 34.2433 -77.9133 11° North 449 517 31,000  Level Washington Center
Tue 12:36:53 PM 34.3711 -77.8867 10° North 454 522 31,000  Level Washington Center
Tue 12:37:53 PM 34.4944 -77.8725 North 454 522 31,000  Level Washington Center
Tue 12:38:52 PM 34.6197 -77.8583 North 449 517 31,000  Level Washington Center
Tue 12:39:54 PM 34.7453 -77.8417 North 444 511 31,000  Level Washington Center
Tue 12:40:54 PM 34.8667 -77.8197 North 444 511 31,000  Level Washington Center
Tue 12:41:52 PM 34.9942 -77.8056 North 444 511 31,000  Level Washington Center
Tue 12:42:52 PM 35.1197 -77.7961 North 444 511 31,000  Level Washington Center
Tue 12:43:53 PM 35.2453 -77.7792 North 449 517 31,000  Level Washington Center
Tue 12:44:54 PM 35.3603 -77.7644 North 449 517 31,000  Level Washington Center
Tue 12:45:52 PM 35.4856 -77.7525 North 449 517 31,000  Level Washington Center
Tue 12:46:53 PM 35.6131 -77.7356 North 449 517 31,000  Level Washington Center
Tue 12:47:53 PM 35.7386 -77.7236 North 449 517 31,000  Level Washington Center
Tue 12:48:54 PM 35.8661 -77.7067 North 449 517 31,000  Level Washington Center
Tue 12:49:52 PM 35.9917 -77.6867 North 449 517 31,000  Level Washington Center
Tue 12:50:53 PM 36.1114 -77.6386 18° North 443 510 31,000  Level Washington Center
Tue 12:51:54 PM 36.2269 -77.5900 19° North 443 510 31,000  Level Washington Center
Tue 12:52:52 PM 36.3511 -77.5392 18° North 443 510 31,000  Level Washington Center
Tue 12:53:52 PM 36.4706 -77.4903 18° North 448 516 31,000  Level Washington Center
Tue 12:54:53 PM 36.5967 -77.4339 20° North 443 510 31,000  Level Washington Center
Tue 12:55:54 PM 36.7186 -77.3825 19° North 448 516 31,000  Level Washington Center
Tue 12:56:54 PM 36.8236 -77.3356 20° North 448 516 31,000  Level Washington Center
Tue 12:57:52 PM 36.9578 -77.2814 18° North 448 516 31,000  Level Washington Center
Tue 12:58:52 PM 37.0628 -77.2317 21° North 448 516 31,000  Level Washington Center
Tue 12:59:53 PM 37.1950 -77.1719 20° North 448 516 31,000  Level Washington Center
Tue 01:00:53 PM 37.3167 -77.1144 21° North 448 516 31,000  Level Washington Center
Tue 01:01:54 PM 37.4303 -77.0381 28° Northeast 454 522 31,000  Level Washington Center
Tue 01:02:54 PM 37.5419 -76.9539 31° Northeast 464 534 31,000  Level Washington Center
Tue 01:03:52 PM 37.6511 -76.8744 30° Northeast 464 534 31,000  Level Washington Center
Tue 01:04:52 PM 37.7628 -76.7897 31° Northeast 459 528 31,000  Level Washington Center
Tue 01:05:53 PM 37.8636 -76.7150 30° Northeast 464 534 31,000  Level Washington Center
Tue 01:06:54 PM 37.9872 -76.6219 31° Northeast 464 534 31,000  Level Washington Center
Tue 01:07:53 PM 38.1006 -76.5392 30° Northeast 469 540 31,000  Level Washington Center
Tue 01:08:53 PM 38.2119 -76.4533 31° Northeast 469 540 31,000  Level Washington Center
Tue 01:09:54 PM 38.3208 -76.3672 32° Northeast 469 540 31,000  Level Washington Center
Tue 01:10:52 PM 38.4236 -76.2728 36° Northeast 464 534 31,000  Level Washington Center
Tue 01:11:52 PM 38.5303 -76.1783 35° Northeast 464 534 31,000 -443 Level Washington Center
Tue 01:12:54 PM 38.6225 -76.0886 37° Northeast 464 534 30,100 -1,210 Descending Washington Center
Tue 01:13:51 PM 38.7272 -75.9933 35° Northeast 464 534 28,600 -1,311 Descending Washington Center
Tue 01:14:53 PM 38.8336 -75.8981 35° Northeast 464 534 27,500 -787 Descending Washington Center
Tue 01:15:53 PM 38.9339 -75.7972 38° Northeast 459 528 27,000 -248 Descending Washington Center
Tue 01:16:54 PM 39.0361 -75.7039 35° Northeast 459 528 27,000  Level Washington Center
Tue 01:17:52 PM 39.1383 -75.6050 37° Northeast 459 528 27,000 -50 Level Washington Center
Tue 01:18:53 PM 39.2383 -75.5111 36° Northeast 454 522 26,900 -738 Descending Washington Center
Tue 01:19:54 PM 39.3406 -75.4197 35° Northeast 454 522 25,500 -1,438 Descending Washington Center
Tue 01:20:54 PM 39.4403 -75.3281 35° Northeast 449 517 24,000 -1,576 Descending Washington Center
Tue 01:21:52 PM 39.5358 -75.2417 35° Northeast 439 505 22,400 -1,850 Descending Washington Center
Tue 01:22:54 PM 39.6272 -75.1550 36° Northeast 419 482 20,300 -2,000 Descending Washington Center
Tue 01:23:52 PM 39.7269 -75.0656 35° Northeast 402 463 18,400 -1,525 Descending Washington Center
Tue 01:24:52 PM 39.8058 -74.9972 34° Northeast 390 449 17,300 -1,082 Descending Washington Center
Tue 01:25:54 PM 39.8889 -74.9289 32° Northeast 357 411 16,200 -1,306 Descending Washington Center
Tue 01:26:56 PM 39.9500 -74.8500 45° Northeast 305 351 14,600 -1,672 Descending New York TRACON
Tue 01:27:56 PM 40.0167 -74.7667 44° Northeast 299 344 12,800 -1,700 Descending New York TRACON
Tue 01:28:56 PM 40.0667 -74.6833 52° Northeast 283 326 11,200 -1,400 Descending New York TRACON
Tue 01:29:56 PM 40.1167 -74.6167 46° Northeast 257 296 10,000 -600 Descending New York TRACON
Tue 01:30:56 PM 40.1667 -74.5500 46° Northeast 233 268 10,000  Level New York TRACON
Tue 01:31:56 PM 40.2000 -74.5000 49° Northeast 235 270 10,000 -600 Level New York TRACON
Tue 01:32:56 PM 40.2500 -74.4333 45° Northeast 231 266 8,800 -1,300 Descending New York TRACON
Tue 01:33:56 PM 40.3000 -74.3667 45° Northeast 224 258 7,400 -900 Descending New York TRACON
Tue 01:34:56 PM 40.3500 -74.3167 37° Northeast 211 243 7,000 -200 Descending New York TRACON
Tue 01:35:56 PM 40.3833 -74.2667 49° Northeast 218 251 7,000  Level New York TRACON
Tue 01:36:56 PM 40.4333 -74.2167 37° Northeast 219 252 7,000 -350 Level New York TRACON
Tue 01:37:56 PM 40.4833 -74.1667 37° Northeast 213 245 6,300 -1,000 Descending New York TRACON
Tue 01:38:56 PM 40.5333 -74.1333 27° Northeast 222 255 5,000 -1,350 Descending New York TRACON
Tue 01:39:56 PM 40.5667 -74.0833 49° Northeast 220 253 3,600 -1,250 Descending New York TRACON
Tue 01:40:56 PM 40.6167 -74.0333 37° Northeast 217 250 2,500 -550 Descending New York TRACON
Tue 01:41:56 PM 40.6667 -73.9833 37° Northeast 213 245 2,500  Level New York TRACON

Login

Don't have an account? Register now (free) for customized features, flight alerts, and more!